Time;durP1;ratioP1;P1;durP2;ratioP2;P2;SDS_P1;SDS_P2;PMS_P1;PMS_P2;Temp;Humidity;BMP_temperature;BMP_pressure;BME280_temperature;BME280_humidity;BME280_pressure;Samples;Min_cycle;Max_cycle;Signal;HPM_P1;HPM_P2
2023/08/10 00:00:14;;;;;;;1.57;1.00;;;20.40;69.90;;;20.83;48.00;94941.47;5061356;28;21008;-59
2023/08/10 00:02:42;;;;;;;1.00;0.90;;;20.40;70.10;;;20.84;48.46;94948.47;5058582;28;20449;-59
2023/08/10 00:05:10;;;;;;;2.50;1.10;;;20.40;70.20;;;20.83;48.59;94947.63;5062245;28;20559;-59
2023/08/10 00:07:37;;;;;;;7.80;1.20;;;20.40;70.50;;;20.85;48.71;94950.94;5059737;28;21056;-58
2023/08/10 00:10:08;;;;;;;1.77;1.63;;;20.40;70.60;;;20.84;48.74;94948.47;5059194;28;20456;-59
2023/08/10 00:12:37;;;;;;;1.30;0.97;;;20.40;70.80;;;20.83;48.71;94941.47;5057986;28;20450;-58
2023/08/10 00:15:05;;;;;;;2.17;0.87;;;20.40;70.60;;;20.80;49.12;94944.53;5061991;28;21142;-59
2023/08/10 00:17:33;;;;;;;1.43;0.80;;;20.40;71.00;;;20.76;49.04;94946.81;5061464;28;20474;-60
2023/08/10 00:20:00;;;;;;;2.93;1.10;;;20.30;71.00;;;20.74;49.36;94943.47;5061131;28;20542;-60
2023/08/10 00:22:27;;;;;;;5.90;0.93;;;20.30;71.40;;;20.73;48.99;94941.84;5059121;28;20532;-61
2023/08/10 00:24:55;;;;;;;1.10;1.00;;;20.30;71.40;;;20.70;49.43;94948.41;5058908;28;20495;-58
2023/08/10 00:27:23;;;;;;;1.63;1.10;;;20.30;71.90;;;20.68;49.49;94944.28;5060414;28;21287;-60
2023/08/10 00:29:52;;;;;;;1.20;0.83;;;20.20;71.80;;;20.65;49.80;94940.19;5056432;28;20460;-60
2023/08/10 00:32:19;;;;;;;2.10;0.93;;;20.20;71.90;;;20.64;49.60;94943.03;5060103;28;20568;-59
2023/08/10 00:34:47;;;;;;;1.83;0.70;;;20.20;72.00;;;20.62;49.63;94940.56;5055896;28;20470;-58
2023/08/10 00:37:15;;;;;;;1.30;1.20;;;20.20;72.00;;;20.60;49.71;94942.59;5062005;28;21022;-59
2023/08/10 00:39:42;;;;;;;1.10;0.83;;;20.20;72.20;;;20.59;50.38;94933.75;5060006;28;20452;-59
2023/08/10 00:42:10;;;;;;;2.73;1.00;;;20.20;72.80;;;20.61;50.16;94925.53;5062094;28;21019;-58
2023/08/10 00:44:37;;;;;;;4.80;1.07;;;20.10;72.50;;;20.64;49.59;94927.81;5059075;28;20486;-61
2023/08/10 00:47:06;;;;;;;2.43;1.10;;;20.20;72.50;;;20.67;50.28;94929.28;5059116;28;20623;-60
2023/08/10 00:49:34;;;;;;;1.67;0.90;;;20.20;73.40;;;20.65;49.77;94934.00;5059936;28;20456;-59
2023/08/10 00:52:01;;;;;;;5.23;0.90;;;20.20;72.50;;;20.64;50.58;94921.66;5063225;28;20567;-60
2023/08/10 00:54:29;;;;;;;2.50;1.93;;;20.20;73.10;;;20.59;50.01;94917.72;5066877;28;20982;-59
2023/08/10 00:56:56;;;;;;;1.10;1.00;;;20.20;72.80;;;20.57;50.12;94921.59;5063883;28;20483;-60
2023/08/10 00:59:23;;;;;;;2.07;0.97;;;20.10;72.70;;;20.54;50.16;94911.31;5060654;28;20461;-58
2023/08/10 01:01:50;;;;;;;1.50;1.40;;;20.10;72.90;;;20.51;50.13;94912.56;5063473;28;20488;-58
2023/08/10 01:04:19;;;;;;;1.10;0.97;;;20.10;73.30;;;20.50;50.04;94916.25;5066364;28;20459;-59
2023/08/10 01:06:52;;;;;;;1.67;1.30;;;20.10;73.40;;;20.51;50.28;94919.75;5062695;28;20471;-59
2023/08/10 01:09:24;;;;;;;1.50;0.83;;;20.10;73.40;;;20.50;50.31;94926.13;5064197;28;20451;-58
2023/08/10 01:11:57;;;;;;;1.67;0.90;;;20.10;73.40;;;20.49;50.64;94924.47;5059255;28;20475;-59
2023/08/10 01:14:30;;;;;;;0.97;0.87;;;20.00;73.30;;;20.46;50.55;94927.53;5065688;28;20463;-59
2023/08/10 01:16:58;;;;;;;2.70;0.80;;;20.00;73.30;;;20.43;50.17;94926.06;5061428;28;20484;-58
2023/08/10 01:19:35;;;;;;;1.03;0.93;;;20.00;73.30;;;20.44;50.45;94925.06;5067386;28;20458;-59
2023/08/10 01:22:07;;;;;;;0.93;0.80;;;20.00;73.30;;;20.45;50.66;94933.91;5063627;28;20491;-58
2023/08/10 01:24:42;;;;;;;1.50;0.83;;;20.00;73.30;;;20.45;50.22;94928.56;5064047;28;20508;-59
2023/08/10 01:27:11;;;;;;;2.87;0.80;;;20.00;73.30;;;20.47;50.44;94929.19;5060682;28;20584;-58
2023/08/10 01:29:38;;;;;;;1.30;1.10;;;20.00;73.30;;;20.44;50.69;94927.72;5059039;28;20810;-58
2023/08/10 01:32:06;;;;;;;1.93;1.10;;;20.00;73.80;;;20.44;50.45;94924.25;5064195;28;21184;-59
2023/08/10 01:34:34;;;;;;;2.37;1.10;;;20.00;73.30;;;20.44;50.77;94929.59;5060137;28;20509;-59
2023/08/10 01:37:01;;;;;;;4.50;1.30;;;20.00;73.80;;;20.42;50.50;94930.59;5063616;28;20483;-60
2023/08/10 01:39:28;;;;;;;0.97;0.77;;;20.00;73.30;;;20.39;50.34;94925.66;5065105;28;20469;-60
2023/08/10 01:41:56;;;;;;;6.47;1.97;;;20.00;73.30;;;20.38;50.47;94920.53;5062331;28;20470;-59
2023/08/10 01:44:24;;;;;;;1.67;0.87;;;20.00;73.40;;;20.35;50.83;94919.06;5066622;28;20968;-59
2023/08/10 01:46:53;;;;;;;2.07;1.13;;;19.90;74.00;;;20.33;50.61;94921.13;5064290;28;20524;-58
2023/08/10 01:49:22;;;;;;;3.37;1.37;;;19.90;73.90;;;20.35;51.12;94927.06;5060846;28;20963;-57
2023/08/10 01:51:49;;;;;;;1.10;1.00;;;19.90;74.30;;;20.37;50.89;94927.72;5064085;28;21143;-59
2023/08/10 01:54:16;;;;;;;1.03;0.93;;;19.90;74.30;;;20.40;50.56;94930.00;5061754;28;20455;-59
2023/08/10 01:56:44;;;;;;;1.73;1.63;;;20.00;74.40;;;20.42;50.75;94927.94;5063406;28;20548;-59
2023/08/10 01:59:11;;;;;;;1.43;1.33;;;20.00;74.70;;;20.46;50.55;94924.88;5064432;28;20573;-59
2023/08/10 02:01:40;;;;;;;2.27;1.17;;;20.00;74.80;;;20.47;50.93;94915.84;5061956;28;20471;-61
2023/08/10 02:04:07;;;;;;;0.93;0.83;;;20.00;74.90;;;20.50;50.73;94923.44;5062470;28;20456;-58
2023/08/10 02:06:39;;;;;;;1.33;1.10;;;20.00;74.90;;;20.53;51.05;94933.75;5062659;28;20498;-59
2023/08/10 02:09:06;;;;;;;2.10;1.03;;;20.00;74.90;;;20.55;50.99;94937.84;5061085;28;20539;-58
2023/08/10 02:11:33;;;;;;;2.63;1.00;;;20.10;75.00;;;20.58;50.99;94944.66;5060112;28;20548;-58
2023/08/10 02:14:01;;;;;;;3.53;1.20;;;20.10;75.10;;;20.59;51.00;94939.09;5062340;28;20451;-58
2023/08/10 02:16:28;;;;;;;5.70;1.00;;;20.10;75.10;;;20.62;51.00;94947.72;5062966;28;20528;-60
2023/08/10 02:18:57;;;;;;;1.57;1.43;;;20.10;75.10;;;20.64;51.00;94954.53;5063382;28;20463;-59
2023/08/10 02:21:26;;;;;;;1.17;1.00;;;20.10;75.10;;;20.65;50.99;94966.91;5064192;28;20475;-59
2023/08/10 02:23:54;;;;;;;5.40;1.20;;;20.20;75.10;;;20.65;51.02;94969.59;5059268;28;20460;-59
2023/08/10 02:26:21;;;;;;;6.10;1.23;;;20.20;75.20;;;20.67;50.96;94975.53;5062250;28;20495;-59
2023/08/10 02:28:48;;;;;;;2.80;1.23;;;20.20;75.20;;;20.70;50.92;94977.81;5060601;28;20930;-59
2023/08/10 02:31:16;;;;;;;0.90;0.77;;;20.20;75.20;;;20.73;50.78;94987.28;5059096;28;20549;-60
2023/08/10 02:33:43;;;;;;;1.20;1.10;;;20.20;75.20;;;20.74;50.96;94995.13;5065305;28;20471;-58
2023/08/10 02:36:12;;;;;;;1.70;1.10;;;20.20;75.20;;;20.76;51.06;95009.09;5063117;28;20479;-58
2023/08/10 02:38:39;;;;;;;1.83;1.13;;;20.30;75.70;;;20.77;51.16;95018.78;5061273;28;20451;-59
2023/08/10 02:41:06;;;;;;;8.27;1.30;;;20.30;76.20;;;20.77;52.42;95034.81;5058370;28;20872;-59
2023/08/10 02:43:34;;;;;;;11.37;1.20;;;20.30;77.70;;;20.76;52.54;95048.38;5063600;28;20520;-60
2023/08/10 02:46:02;;;;;;;1.77;1.30;;;20.20;78.30;;;20.73;53.00;95046.91;5063910;28;20494;-58
2023/08/10 02:48:29;;;;;;;3.57;1.50;;;20.30;79.40;;;20.71;53.79;95048.13;5059399;28;20462;-59
2023/08/10 02:50:57;;;;;;;5.33;1.57;;;20.20;80.00;;;20.66;54.37;95059.41;5063879;28;20471;-59
2023/08/10 02:53:25;;;;;;;2.43;1.70;;;20.20;81.70;;;20.59;54.99;95058.53;5065013;28;20481;-58
2023/08/10 02:55:53;;;;;;;3.00;1.60;;;20.20;83.20;;;20.53;55.62;95054.81;5060635;28;20483;-60
2023/08/10 02:58:21;;;;;;;2.40;1.10;;;20.10;84.90;;;20.46;56.04;95064.63;5059027;28;20451;-59
2023/08/10 03:00:49;;;;;;;2.37;1.50;;;20.00;86.30;;;20.38;56.47;95057.59;5061726;28;20478;-60
2023/08/10 03:03:17;;;;;;;1.87;1.50;;;19.90;87.50;;;20.31;57.15;95056.72;5063328;28;20923;-60
2023/08/10 03:05:44;;;;;;;4.97;2.50;;;19.90;90.00;;;20.24;57.44;95047.84;5059203;28;20513;-59
2023/08/10 03:08:11;;;;;;;3.00;1.53;;;19.80;90.10;;;20.14;58.23;95050.88;5060635;28;20538;-58
2023/08/10 03:10:40;;;;;;;3.47;1.30;;;19.80;91.00;;;20.05;58.85;95052.03;5060078;28;20533;-58
2023/08/10 03:13:07;;;;;;;2.00;1.63;;;19.70;91.60;;;19.95;58.89;95048.88;5058097;28;20471;-58
2023/08/10 03:15:35;;;;;;;1.80;1.30;;;19.50;92.00;;;19.82;59.00;95046.94;5061924;28;20777;-58
2023/08/10 03:18:12;;;;;;;2.03;1.10;;;19.50;92.30;;;19.67;60.04;95050.47;5063383;28;20557;-59
2023/08/10 03:20:40;;;;;;;5.53;1.37;;;19.30;93.30;;;19.53;60.41;95057.53;5060324;28;20478;-59
2023/08/10 03:23:07;;;;;;;2.50;1.00;;;19.20;93.90;;;19.41;60.46;95056.38;5057893;28;20983;-60
2023/08/10 03:25:34;;;;;;;5.13;1.63;;;19.10;94.50;;;19.32;62.27;95053.00;5060111;28;20494;-59
2023/08/10 03:28:03;;;;;;;3.30;1.50;;;19.00;95.80;;;19.26;62.54;95058.28;5057299;28;20461;-59
2023/08/10 03:30:30;;;;;;;1.40;1.30;;;18.90;96.10;;;19.21;62.92;95056.19;5061999;28;20479;-59
2023/08/10 03:32:58;;;;;;;2.70;1.30;;;18.80;96.70;;;19.15;63.05;95046.28;5060620;28;20550;-59
2023/08/10 03:35:25;;;;;;;1.53;1.23;;;18.80;96.90;;;19.09;62.30;95052.34;5064076;28;20532;-60
2023/08/10 03:37:52;;;;;;;1.53;1.40;;;18.70;96.10;;;19.02;61.84;95062.09;5062049;28;20840;-60
2023/08/10 03:40:20;;;;;;;1.80;1.50;;;18.60;96.10;;;18.92;62.75;95065.88;5059048;28;20455;-61
2023/08/10 03:42:47;;;;;;;1.60;1.50;;;18.60;96.60;;;18.83;62.63;95066.97;5057943;28;20458;-59
2023/08/10 03:45:16;;;;;;;1.73;1.47;;;18.50;96.80;;;18.79;63.18;95071.00;5060353;28;20458;-61
2023/08/10 03:47:44;;;;;;;4.40;1.73;;;18.40;97.10;;;18.76;63.24;95080.22;5058742;28;20537;-60
2023/08/10 03:50:12;;;;;;;5.37;2.03;;;18.30;97.70;;;18.76;64.05;95090.03;5065381;28;20463;-60
2023/08/10 03:52:39;;;;;;;4.40;2.50;;;18.40;98.50;;;18.75;65.35;95088.41;5062496;28;20459;-59
2023/08/10 03:55:07;;;;;;;2.90;1.77;;;18.40;99.60;;;18.73;65.86;95079.75;5057915;28;20471;-60
2023/08/10 03:57:35;;;;;;;2.50;1.43;;;18.30;99.90;;;18.77;65.67;95081.03;5061077;28;20458;-59
2023/08/10 04:00:03;;;;;;;1.40;1.30;;;18.40;99.90;;;18.77;66.09;95087.19;5061300;28;20505;-59
2023/08/10 04:02:32;;;;;;;2.70;1.73;;;18.40;99.90;;;18.78;65.92;95104.03;5059301;28;20466;-61
2023/08/10 04:05:05;;;;;;;2.60;1.50;;;18.40;99.90;;;18.77;66.38;95113.03;5057969;28;20459;-58
2023/08/10 04:07:33;;;;;;;2.83;1.60;;;18.30;99.90;;;18.77;66.80;95107.69;5056373;28;20568;-60
2023/08/10 04:10:01;;;;;;;5.63;2.20;;;18.40;99.90;;;18.77;66.83;95099.69;5056569;28;20538;-59
2023/08/10 04:12:28;;;;;;;3.03;1.60;;;18.30;99.90;;;18.78;67.38;95096.84;5061768;28;20474;-58
2023/08/10 04:14:55;;;;;;;2.60;1.33;;;18.40;99.90;;;18.82;66.99;95094.63;5056593;28;20447;-59
2023/08/10 04:17:22;;;;;;;1.30;1.13;;;18.40;99.90;;;18.85;66.91;95104.13;5056231;28;21148;-59
2023/08/10 04:19:52;;;;;;;2.27;1.47;;;18.40;99.90;;;18.88;66.66;95107.25;5062029;28;20451;-60
2023/08/10 04:22:19;;;;;;;5.07;1.50;;;18.50;99.90;;;18.90;67.01;95118.56;5063257;28;20479;-59
2023/08/10 04:24:46;;;;;;;2.23;1.83;;;18.50;99.90;;;18.92;66.90;95127.19;5057070;28;20456;-59
2023/08/10 04:27:13;;;;;;;3.10;1.10;;;18.50;99.90;;;18.94;67.42;95129.69;5058409;28;20486;-59
2023/08/10 04:29:44;;;;;;;1.83;1.73;;;18.50;99.90;;;18.94;67.78;95135.00;5061023;28;20529;-59
2023/08/10 04:32:11;;;;;;;5.83;2.10;;;18.50;99.90;;;18.94;67.79;95141.16;5061116;28;20806;-59
2023/08/10 04:34:39;;;;;;;4.83;2.37;;;18.50;99.90;;;18.91;67.79;95144.19;5058246;28;20448;-58
2023/08/10 04:37:07;;;;;;;4.70;1.60;;;18.50;99.90;;;18.89;67.59;95137.41;5061762;28;20483;-58
2023/08/10 04:39:36;;;;;;;2.73;2.50;;;18.50;99.90;;;18.85;68.09;95139.59;5058534;28;20517;-59
2023/08/10 04:42:04;;;;;;;2.50;2.30;;;18.50;99.90;;;18.76;67.55;95138.00;5059827;28;20475;-60
2023/08/10 04:44:31;;;;;;;4.63;1.77;;;18.40;99.90;;;18.58;67.50;95130.41;5058079;28;20990;-61
2023/08/10 04:46:58;;;;;;;4.60;2.50;;;18.20;99.90;;;18.40;68.26;95128.06;5059183;28;20498;-61
2023/08/10 04:49:28;;;;;;;9.97;3.10;;;18.10;99.90;;;18.22;68.56;95126.59;5060965;28;20588;-61
2023/08/10 04:51:56;;;;;;;5.83;2.70;;;17.90;99.90;;;18.08;69.35;95130.06;5060153;28;20478;-60
2023/08/10 04:54:25;;;;;;;4.93;2.57;;;17.80;99.90;;;17.96;71.11;95139.47;5060333;28;20459;-59
2023/08/10 04:56:52;;;;;;;6.60;2.37;;;17.60;99.90;;;17.84;70.53;95144.34;5057731;28;20475;-59
2023/08/10 04:59:19;;;;;;;2.30;2.10;;;17.50;99.90;;;17.74;71.64;95141.94;5055662;28;20440;-60
2023/08/10 05:01:46;;;;;;;1.90;1.80;;;17.40;99.90;;;17.65;70.83;95143.81;5057862;28;20482;-60
2023/08/10 05:04:14;;;;;;;9.63;2.53;;;17.30;99.90;;;17.61;71.54;95141.69;5056545;28;20490;-60
2023/08/10 05:06:42;;;;;;;5.17;2.70;;;17.30;99.90;;;17.62;72.80;95140.69;5058283;28;20503;-62
2023/08/10 05:09:10;;;;;;;4.10;2.70;;;17.20;99.90;;;17.68;72.69;95129.34;5059708;28;20455;-60
2023/08/10 05:11:38;;;;;;;2.33;2.10;;;17.30;99.90;;;17.70;72.55;95128.13;5060002;28;20561;-59
2023/08/10 05:14:05;;;;;;;5.40;2.30;;;17.30;99.90;;;17.71;72.19;95131.66;5058522;28;20459;-59
2023/08/10 05:16:33;;;;;;;4.07;2.80;;;17.30;99.90;;;17.69;71.49;95117.66;5059304;28;20474;-60
2023/08/10 05:19:00;;;;;;;3.27;2.77;;;17.30;99.90;;;17.65;74.06;95117.22;5058178;28;20550;-59
2023/08/10 05:21:27;;;;;;;4.10;2.80;;;17.30;99.90;;;17.61;72.99;95120.41;5058335;28;20501;-62
2023/08/10 05:23:55;;;;;;;3.47;2.70;;;17.30;99.90;;;17.51;72.78;95124.13;5057987;28;20826;-60
2023/08/10 05:26:22;;;;;;;2.83;2.60;;;17.20;99.90;;;17.47;73.09;95127.31;5059111;28;20494;-61
2023/08/10 05:28:51;;;;;;;6.23;2.57;;;17.10;99.90;;;17.45;73.42;95129.31;5058455;28;20458;-62
2023/08/10 05:31:18;;;;;;;3.90;2.90;;;17.10;99.90;;;17.41;73.24;95120.03;5059669;28;20611;-60
2023/08/10 05:33:46;;;;;;;4.43;3.10;;;17.10;99.90;;;17.38;74.37;95119.38;5055948;28;20468;-60
2023/08/10 05:36:13;;;;;;;4.37;3.20;;;17.10;99.90;;;17.39;74.21;95109.56;5061290;28;20482;-60
2023/08/10 05:38:40;;;;;;;3.60;3.37;;;17.10;99.90;;;17.36;74.59;95113.41;5059905;28;20498;-61
2023/08/10 05:41:08;;;;;;;3.93;3.00;;;17.00;99.90;;;17.36;74.24;95110.75;5061285;28;20561;-60
2023/08/10 05:43:35;;;;;;;6.10;3.80;;;17.00;99.90;;;17.42;75.00;95127.00;5060965;28;20455;-60
2023/08/10 05:46:03;;;;;;;4.07;3.50;;;17.10;99.90;;;17.49;75.24;95125.28;5065261;28;20589;-60
2023/08/10 05:48:31;;;;;;;6.43;4.17;;;17.10;99.90;;;17.59;74.95;95125.91;5062416;28;20454;-59
2023/08/10 05:50:58;;;;;;;3.57;3.23;;;17.20;99.90;;;17.67;75.61;95122.34;5060458;28;20482;-60
2023/08/10 05:53:26;;;;;;;5.10;3.73;;;17.30;99.90;;;17.76;75.03;95129.25;5063527;28;20478;-61
2023/08/10 05:55:53;;;;;;;3.90;3.53;;;17.30;99.90;;;17.84;75.54;95139.03;5063876;28;20474;-61
2023/08/10 05:58:20;;;;;;;6.37;3.70;;;17.40;99.90;;;17.90;75.66;95135.69;5060008;28;20512;-61
2023/08/10 06:00:48;;;;;;;11.60;4.40;;;17.50;99.90;;;17.95;75.41;95135.16;5059935;28;20478;-61
2023/08/10 06:03:16;;;;;;;3.37;2.80;;;17.50;99.90;;;17.98;74.34;95126.81;5062328;28;20562;-60
2023/08/10 06:05:44;;;;;;;7.20;3.33;;;17.60;99.90;;;17.96;75.11;95116.34;5060248;28;20499;-60
2023/08/10 06:08:11;;;;;;;5.47;3.20;;;17.60;99.90;;;17.95;74.43;95113.84;5063731;28;20494;-59
2023/08/10 06:10:39;;;;;;;4.73;3.83;;;17.60;99.90;;;17.93;73.62;95116.69;5060135;28;21063;-61
2023/08/10 06:13:06;;;;;;;3.20;3.00;;;17.50;99.90;;;17.86;73.66;95124.53;5058874;28;21135;-61
2023/08/10 06:15:34;;;;;;;3.33;2.70;;;17.50;99.90;;;17.79;74.00;95131.56;5061081;28;20479;-59
2023/08/10 06:18:02;;;;;;;4.80;3.70;;;17.50;99.90;;;17.75;74.61;95130.25;5064042;28;20828;-61
2023/08/10 06:20:30;;;;;;;5.70;3.70;;;17.40;99.90;;;17.76;75.58;95136.44;5063572;28;20470;-59
2023/08/10 06:22:58;;;;;;;6.60;4.30;;;17.40;99.90;;;17.79;75.04;95142.22;5061511;28;20469;-61
2023/08/10 06:25:25;;;;;;;6.17;3.20;;;17.40;99.90;;;17.85;75.07;95156.66;5063154;28;20483;-61
2023/08/10 06:27:53;;;;;;;3.33;2.73;;;17.50;99.90;;;17.91;75.32;95151.47;5060323;28;20487;-60
2023/08/10 06:30:20;;;;;;;4.07;3.30;;;17.50;99.90;;;17.99;75.07;95165.72;5063026;28;20455;-60
2023/08/10 06:32:48;;;;;;;8.10;4.03;;;17.60;99.90;;;18.03;74.73;95173.19;5058874;28;20466;-60
2023/08/10 06:35:15;;;;;;;17.30;6.17;;;17.60;99.90;;;18.09;74.40;95179.59;5065007;28;20821;-60
2023/08/10 06:37:44;;;;;;;20.33;9.43;;;17.70;99.90;;;18.14;74.02;95171.94;5060258;28;20542;-61
2023/08/10 06:40:14;;;;;;;22.93;9.37;;;17.70;99.90;;;18.19;74.82;95174.88;5062787;28;20905;-60
2023/08/10 06:42:42;;;;;;;3.00;2.70;;;17.80;99.90;;;18.28;73.67;95170.31;5059312;28;20526;-61
2023/08/10 06:45:10;;;;;;;17.43;7.80;;;17.80;99.90;;;18.33;73.65;95175.09;5063763;28;20451;-60
2023/08/10 06:47:37;;;;;;;14.97;6.43;;;17.90;99.90;;;18.39;73.08;95169.06;5060252;28;20496;-61
2023/08/10 06:50:08;;;;;;;23.47;8.50;;;17.90;99.90;;;18.46;72.45;95167.28;5061970;28;20562;-61
2023/08/10 06:52:35;;;;;;;6.40;4.67;;;18.00;99.90;;;18.52;72.83;95168.41;5059665;28;20447;-61
2023/08/10 06:55:06;;;;;;;11.50;4.80;;;18.10;99.90;;;18.54;72.66;95159.22;5062475;28;20479;-60
2023/08/10 06:57:35;;;;;;;10.57;6.13;;;18.10;99.90;;;18.64;72.95;95173.09;5061167;28;20455;-61
2023/08/10 07:00:06;;;;;;;5.40;3.13;;;18.20;99.90;;;18.71;72.71;95180.38;5061692;28;20455;-60
2023/08/10 07:02:34;;;;;;;5.60;2.20;;;18.30;99.90;;;18.77;71.33;95184.97;5063809;28;20455;-59
2023/08/10 07:05:02;;;;;;;2.40;2.20;;;18.30;99.90;;;18.77;70.00;95172.47;5062489;28;20455;-59
2023/08/10 07:07:29;;;;;;;2.30;2.10;;;18.30;99.90;;;18.80;69.83;95176.59;5058906;28;20498;-60
2023/08/10 07:09:56;;;;;;;2.30;2.10;;;18.40;99.90;;;18.82;70.21;95177.25;5059377;28;20493;-61
2023/08/10 07:12:25;;;;;;;2.43;2.23;;;18.50;99.90;;;18.93;70.23;95179.50;5064905;28;20475;-59
2023/08/10 07:14:52;;;;;;;3.10;2.90;;;18.40;99.90;;;19.06;70.36;95168.19;5064931;28;20468;-59
2023/08/10 07:17:19;;;;;;;3.47;3.17;;;18.60;99.90;;;19.23;70.07;95170.66;5062501;28;21474;-60
2023/08/10 07:19:46;;;;;;;3.50;3.20;;;18.70;99.90;;;19.37;70.39;95169.81;5064185;28;20810;-60
2023/08/10 07:22:14;;;;;;;11.67;3.63;;;18.90;99.90;;;19.52;70.01;95172.44;5063692;28;20536;-61
2023/08/10 07:24:41;;;;;;;4.97;3.33;;;19.00;99.90;;;19.66;69.44;95174.25;5063476;28;20483;-60
2023/08/10 07:27:09;;;;;;;3.60;3.30;;;19.20;99.90;;;19.82;69.35;95169.72;5060467;28;20529;-59
2023/08/10 07:29:37;;;;;;;4.07;3.60;;;19.30;99.90;;;19.98;68.84;95169.44;5059425;28;20455;-60
2023/08/10 07:32:07;;;;;;;3.60;3.30;;;19.50;99.90;;;20.14;68.07;95180.88;5061099;28;20475;-60
2023/08/10 07:34:34;;;;;;;3.73;3.43;;;19.60;99.90;;;20.30;67.87;95177.97;5057488;28;20459;-59
2023/08/10 07:37:01;;;;;;;7.03;3.83;;;19.80;99.90;;;20.46;67.66;95179.50;5065399;28;20490;-60
2023/08/10 07:39:29;;;;;;;5.27;2.40;;;20.00;99.90;;;20.60;67.48;95170.59;5061699;28;20829;-60
2023/08/10 07:41:56;;;;;;;2.90;2.70;;;20.10;99.90;;;20.69;66.15;95171.28;5061525;28;20471;-60
2023/08/10 07:44:23;;;;;;;4.20;3.37;;;20.20;99.90;;;20.72;65.48;95170.91;5059564;28;20963;-60
2023/08/10 07:46:52;;;;;;;12.73;3.40;;;20.20;99.90;;;20.67;65.47;95177.88;5063393;28;20502;-61
2023/08/10 07:49:19;;;;;;;3.43;2.90;;;20.20;99.90;;;20.66;65.24;95176.22;5058366;28;20456;-61
2023/08/10 07:51:47;;;;;;;2.70;2.50;;;20.20;99.90;;;20.71;65.66;95174.59;5064441;28;20482;-60
2023/08/10 07:54:14;;;;;;;3.90;3.43;;;20.30;99.90;;;20.82;65.56;95180.41;5060603;28;20462;-60
2023/08/10 07:56:42;;;;;;;3.80;3.50;;;20.40;99.90;;;20.92;65.24;95179.03;5061899;28;20586;-59
2023/08/10 07:59:11;;;;;;;4.90;2.73;;;20.40;99.90;;;21.02;65.05;95177.88;5059342;28;21009;-60
2023/08/10 08:01:39;;;;;;;3.03;2.83;;;20.50;99.90;;;21.12;64.83;95184.50;5060307;28;20893;-61
2023/08/10 08:04:07;;;;;;;3.70;3.23;;;20.60;99.90;;;21.20;64.50;95188.88;5057134;28;20459;-61
2023/08/10 08:06:36;;;;;;;5.87;2.80;;;20.70;99.90;;;21.23;64.29;95184.97;5061603;28;20470;-60
2023/08/10 08:09:06;;;;;;;5.77;3.30;;;20.70;99.90;;;21.26;64.25;95182.72;5061430;28;20522;-68
2023/08/10 08:11:34;;;;;;;4.03;3.70;;;20.80;99.90;;;21.31;64.36;95179.44;5063311;28;20528;-61
2023/08/10 08:14:02;;;;;;;2.87;2.70;;;20.80;99.90;;;21.29;63.61;95184.19;5061735;28;20450;-59
2023/08/10 08:16:29;;;;;;;6.23;2.90;;;20.80;99.90;;;21.26;63.86;95179.22;5053858;28;20475;-60
2023/08/10 08:18:56;;;;;;;5.43;2.63;;;20.80;99.90;;;21.25;63.22;95178.38;5063098;28;20461;-60
2023/08/10 08:21:26;;;;;;;3.33;2.40;;;20.80;99.90;;;21.22;63.23;95189.47;5057869;28;20467;-60
2023/08/10 08:23:54;;;;;;;2.60;2.40;;;20.80;99.90;;;21.21;62.95;95185.19;5063612;28;20967;-60
2023/08/10 08:26:23;;;;;;;4.00;2.80;;;20.80;99.90;;;21.20;62.34;95188.06;5059105;28;20978;-60
2023/08/10 08:28:51;;;;;;;2.20;2.00;;;20.80;99.90;;;21.22;62.53;95186.00;5063353;28;20483;-61
2023/08/10 08:31:18;;;;;;;5.60;2.60;;;20.80;99.90;;;21.30;62.45;95185.81;5060486;28;20489;-59
2023/08/10 08:33:45;;;;;;;2.90;2.70;;;20.80;99.90;;;21.42;62.22;95186.91;5057886;28;20471;-60
2023/08/10 08:36:13;;;;;;;5.83;2.63;;;20.90;99.90;;;21.58;62.28;95180.44;5061043;28;20467;-60
2023/08/10 08:38:42;;;;;;;9.80;3.13;;;21.10;99.90;;;21.76;61.70;95182.53;5060250;28;20443;-61
2023/08/10 08:41:10;;;;;;;3.77;2.87;;;21.20;99.90;;;22.04;61.43;95184.22;5063924;28;20467;-60
2023/08/10 08:43:39;;;;;;;2.00;1.90;;;21.50;99.90;;;22.40;59.82;95188.41;5064133;28;20529;-60
2023/08/10 08:46:07;;;;;;;5.53;2.70;;;21.80;99.10;;;22.62;59.34;95180.16;5061697;28;20474;-60
2023/08/10 08:48:35;;;;;;;2.50;2.30;;;22.00;98.40;;;22.81;58.74;95179.34;5062045;28;20570;-59
2023/08/10 08:51:02;;;;;;;3.27;2.97;;;22.30;98.00;;;23.06;58.68;95179.47;5060535;28;20532;-61
2023/08/10 08:53:30;;;;;;;2.43;2.23;;;22.40;97.80;;;23.39;58.31;95180.44;5057635;28;20530;-60
2023/08/10 08:55:58;;;;;;;2.20;2.00;;;22.80;97.50;;;23.80;56.92;95184.63;5061578;28;20463;-61
2023/08/10 08:58:26;;;;;;;1.60;1.50;;;23.20;96.90;;;24.28;56.65;95189.53;5061072;28;20439;-61
2023/08/10 09:00:55;;;;;;;2.67;1.37;;;23.60;96.10;;;24.75;55.73;95188.34;5056044;28;20467;-60
2023/08/10 09:03:23;;;;;;;2.40;1.47;;;24.00;95.40;;;25.14;54.55;95187.13;5058296;28;20454;-59
2023/08/10 09:05:50;;;;;;;4.30;1.80;;;24.40;94.30;;;25.32;53.31;95188.25;5059817;28;20840;-60
2023/08/10 09:08:19;;;;;;;2.07;1.40;;;24.70;92.50;;;25.40;53.27;95188.75;5060086;28;20485;-59
2023/08/10 09:10:46;;;;;;;4.03;2.23;;;24.80;92.20;;;25.45;52.57;95187.25;5060069;28;20466;-59
2023/08/10 09:13:17;;;;;;;7.67;1.93;;;24.90;91.60;;;25.44;51.86;95188.28;5062642;28;20453;-60
2023/08/10 09:15:44;;;;;;;1.53;1.43;;;24.90;90.90;;;25.38;51.57;95190.84;5064250;28;20486;-60
2023/08/10 09:18:12;;;;;;;1.27;1.17;;;24.90;90.20;;;25.21;51.53;95181.69;5064618;28;20453;-60
2023/08/10 09:20:40;;;;;;;2.60;1.70;;;24.80;88.70;;;25.10;51.04;95179.72;5064199;28;20558;-59
2023/08/10 09:23:07;;;;;;;2.30;1.27;;;24.70;88.00;;;25.10;51.31;95174.34;5065846;28;20490;-60
2023/08/10 09:25:39;;;;;;;2.23;1.50;;;24.60;88.80;;;25.22;51.31;95181.47;5060696;28;20466;-60
2023/08/10 09:28:10;;;;;;;10.53;1.50;;;24.70;88.60;;;25.33;50.10;95185.31;5064798;28;20580;-59
2023/08/10 09:30:41;;;;;;;1.13;1.03;;;24.80;86.30;;;25.36;49.94;95189.41;5062112;28;20474;-59
2023/08/10 09:33:08;;;;;;;3.10;1.57;;;24.80;85.00;;;25.33;49.67;95179.94;5059816;28;20455;-60
2023/08/10 09:35:35;;;;;;;1.03;0.93;;;24.80;84.10;;;25.28;48.72;95177.03;5065579;28;20470;-58
2023/08/10 09:38:04;;;;;;;2.83;1.37;;;24.80;81.60;;;25.26;49.24;95179.16;5063824;28;20454;-59
2023/08/10 09:40:31;;;;;;;1.20;1.03;;;24.80;82.50;;;25.21;48.92;95171.75;5064201;28;20469;-59
2023/08/10 09:42:59;;;;;;;12.43;1.50;;;24.80;81.90;;;25.22;48.99;95169.84;5064441;28;20531;-60
2023/08/10 09:45:27;;;;;;;2.40;1.63;;;24.70;81.70;;;25.15;48.40;95171.81;5066922;28;20841;-59
2023/08/10 09:47:55;;;;;;;1.80;1.70;;;24.70;80.60;;;25.00;48.68;95164.94;5061484;28;20493;-60
2023/08/10 09:50:23;;;;;;;1.67;1.23;;;24.50;80.60;;;24.86;49.26;95166.09;5062873;28;20454;-60
2023/08/10 09:52:52;;;;;;;2.17;1.60;;;24.40;81.10;;;24.86;49.67;95160.72;5060261;28;20508;-60
2023/08/10 09:55:19;;;;;;;8.90;2.20;;;24.40;81.50;;;24.88;49.77;95166.72;5066708;28;20493;-60
2023/08/10 09:57:47;;;;;;;2.60;1.63;;;24.40;82.20;;;24.94;48.89;95165.84;5062903;28;20457;-61
2023/08/10 10:00:18;;;;;;;4.03;1.73;;;24.40;81.70;;;24.96;49.63;95162.91;5063855;28;20454;-59
2023/08/10 10:02:46;;;;;;;2.13;2.03;;;24.40;81.80;;;25.03;49.31;95169.84;5061153;28;20482;-61
2023/08/10 10:05:16;;;;;;;2.73;2.13;;;24.50;81.80;;;25.15;49.67;95167.25;5062658;28;20996;-59
2023/08/10 10:07:44;;;;;;;2.60;2.17;;;24.60;82.50;;;25.36;49.22;95174.09;5060143;28;20489;-60
2023/08/10 10:10:15;;;;;;;2.10;2.00;;;24.80;82.90;;;25.56;48.78;95168.47;5062693;28;20458;-58
2023/08/10 10:12:43;;;;;;;2.60;2.40;;;24.90;80.90;;;25.63;47.93;95173.78;5063636;28;20443;-60
2023/08/10 10:15:11;;;;;;;4.00;1.83;;;25.10;80.00;;;25.58;48.12;95166.38;5061878;28;20451;-59
2023/08/10 10:17:40;;;;;;;6.60;2.17;;;25.10;79.10;;;25.53;47.93;95163.53;5058801;28;20469;-59
2023/08/10 10:20:11;;;;;;;16.87;2.13;;;25.00;79.00;;;25.43;48.67;95157.03;5065048;28;20465;-59